sensor_id;sensor_type;location;lat;lon;timestamp;temperature;humidity
71175;DHT22;58876;51.994;4.472;2024-02-23T00:01:49;7.34;76.72
71175;DHT22;58876;51.994;4.472;2024-02-23T00:04:15;7.25;76.18
71175;DHT22;58876;51.994;4.472;2024-02-23T00:06:41;7.32;76.01
71175;DHT22;58876;51.994;4.472;2024-02-23T00:09:06;7.26;76.16
71175;DHT22;58876;51.994;4.472;2024-02-23T00:11:32;7.31;76.29
71175;DHT22;58876;51.994;4.472;2024-02-23T00:13:59;7.26;75.81
71175;DHT22;58876;51.994;4.472;2024-02-23T00:16:25;7.29;76.23
71175;DHT22;58876;51.994;4.472;2024-02-23T00:18:51;7.26;76.49
71175;DHT22;58876;51.994;4.472;2024-02-23T00:21:17;7.31;76.99
71175;DHT22;58876;51.994;4.472;2024-02-23T00:23:42;7.32;77.26
71175;DHT22;58876;51.994;4.472;2024-02-23T00:26:07;7.01;77.55
71175;DHT22;58876;51.994;4.472;2024-02-23T00:28:34;6.77;78.53
71175;DHT22;58876;51.994;4.472;2024-02-23T00:30:59;6.58;78.54
71175;DHT22;58876;51.994;4.472;2024-02-23T00:33:24;6.66;79.21
71175;DHT22;58876;51.994;4.472;2024-02-23T00:35:50;6.77;78.70
71175;DHT22;58876;51.994;4.472;2024-02-23T00:38:15;6.76;79.55
71175;DHT22;58876;51.994;4.472;2024-02-23T00:40:41;6.66;80.64
71175;DHT22;58876;51.994;4.472;2024-02-23T00:43:07;6.62;80.73
71175;DHT22;58876;51.994;4.472;2024-02-23T00:45:32;6.32;80.89
71175;DHT22;58876;51.994;4.472;2024-02-23T00:47:57;6.08;82.13
71175;DHT22;58876;51.994;4.472;2024-02-23T00:50:23;6.09;82.60
71175;DHT22;58876;51.994;4.472;2024-02-23T00:52:52;6.01;82.77
71175;DHT22;58876;51.994;4.472;2024-02-23T00:55:18;5.91;82.47
71175;DHT22;58876;51.994;4.472;2024-02-23T00:57:44;6.01;82.69
71175;DHT22;58876;51.994;4.472;2024-02-23T01:00:11;6.09;82.59
71175;DHT22;58876;51.994;4.472;2024-02-23T01:02:38;6.18;83.05
71175;DHT22;58876;51.994;4.472;2024-02-23T01:05:04;6.26;83.19
71175;DHT22;58876;51.994;4.472;2024-02-23T01:07:29;6.33;82.92
71175;DHT22;58876;51.994;4.472;2024-02-23T01:09:55;6.33;82.49
71175;DHT22;58876;51.994;4.472;2024-02-23T01:12:21;6.37;81.41
71175;DHT22;58876;51.994;4.472;2024-02-23T01:14:46;6.47;81.06
71175;DHT22;58876;51.994;4.472;2024-02-23T01:17:14;6.46;80.03
71175;DHT22;58876;51.994;4.472;2024-02-23T01:19:41;6.50;80.43
71175;DHT22;58876;51.994;4.472;2024-02-23T01:22:06;6.47;80.03
71175;DHT22;58876;51.994;4.472;2024-02-23T01:24:32;6.53;79.97
71175;DHT22;58876;51.994;4.472;2024-02-23T01:26:58;6.54;79.71
71175;DHT22;58876;51.994;4.472;2024-02-23T01:29:24;6.56;79.09
71175;DHT22;58876;51.994;4.472;2024-02-23T01:31:50;6.57;78.84
71175;DHT22;58876;51.994;4.472;2024-02-23T01:34:17;6.45;78.84
71175;DHT22;58876;51.994;4.472;2024-02-23T01:36:43;6.56;79.33
71175;DHT22;58876;51.994;4.472;2024-02-23T01:39:08;6.58;79.10
71175;DHT22;58876;51.994;4.472;2024-02-23T01:41:34;6.62;78.89
71175;DHT22;58876;51.994;4.472;2024-02-23T01:43:59;6.52;78.61
71175;DHT22;58876;51.994;4.472;2024-02-23T01:46:25;6.62;78.30
71175;DHT22;58876;51.994;4.472;2024-02-23T01:48:50;6.69;77.92
71175;DHT22;58876;51.994;4.472;2024-02-23T01:51:16;6.73;78.14
71175;DHT22;58876;51.994;4.472;2024-02-23T01:53:42;6.72;78.06
71175;DHT22;58876;51.994;4.472;2024-02-23T01:56:09;6.74;78.20
71175;DHT22;58876;51.994;4.472;2024-02-23T01:58:37;6.81;78.70
71175;DHT22;58876;51.994;4.472;2024-02-23T02:01:03;6.91;78.03
71175;DHT22;58876;51.994;4.472;2024-02-23T02:03:28;6.85;77.97
71175;DHT22;58876;51.994;4.472;2024-02-23T02:05:55;6.90;78.44
71175;DHT22;58876;51.994;4.472;2024-02-23T02:08:25;6.80;78.45
71175;DHT22;58876;51.994;4.472;2024-02-23T02:10:51;6.83;78.10
71175;DHT22;58876;51.994;4.472;2024-02-23T02:13:16;6.98;78.10
71175;DHT22;58876;51.994;4.472;2024-02-23T02:15:42;6.98;78.38
71175;DHT22;58876;51.994;4.472;2024-02-23T02:18:09;6.95;78.08
71175;DHT22;58876;51.994;4.472;2024-02-23T02:20:36;7.01;77.65
71175;DHT22;58876;51.994;4.472;2024-02-23T02:23:02;6.84;77.43
71175;DHT22;58876;51.994;4.472;2024-02-23T02:25:28;6.88;76.39
71175;DHT22;58876;51.994;4.472;2024-02-23T02:27:53;6.98;76.79
71175;DHT22;58876;51.994;4.472;2024-02-23T02:30:19;7.01;76.37
71175;DHT22;58876;51.994;4.472;2024-02-23T02:32:45;6.95;76.46
71175;DHT22;58876;51.994;4.472;2024-02-23T02:35:11;7.05;76.42
71175;DHT22;58876;51.994;4.472;2024-02-23T02:37:40;6.97;76.14
71175;DHT22;58876;51.994;4.472;2024-02-23T02:40:05;7.01;76.51
71175;DHT22;58876;51.994;4.472;2024-02-23T02:42:32;7.05;76.78
71175;DHT22;58876;51.994;4.472;2024-02-23T02:44:57;7.08;77.04
71175;DHT22;58876;51.994;4.472;2024-02-23T02:47:23;6.93;78.05
71175;DHT22;58876;51.994;4.472;2024-02-23T02:49:49;6.91;78.75
71175;DHT22;58876;51.994;4.472;2024-02-23T02:52:14;6.83;78.86
71175;DHT22;58876;51.994;4.472;2024-02-23T02:54:40;6.66;79.47
71175;DHT22;58876;51.994;4.472;2024-02-23T02:57:05;6.60;79.57
71175;DHT22;58876;51.994;4.472;2024-02-23T02:59:34;6.60;79.72
71175;DHT22;58876;51.994;4.472;2024-02-23T03:02:00;6.69;79.63
71175;DHT22;58876;51.994;4.472;2024-02-23T03:04:25;6.60;80.13
71175;DHT22;58876;51.994;4.472;2024-02-23T03:06:51;6.63;80.10
71175;DHT22;58876;51.994;4.472;2024-02-23T03:09:16;6.58;79.80
71175;DHT22;58876;51.994;4.472;2024-02-23T03:11:41;6.60;79.68
71175;DHT22;58876;51.994;4.472;2024-02-23T03:14:07;6.58;79.97
71175;DHT22;58876;51.994;4.472;2024-02-23T03:16:33;6.63;80.05
71175;DHT22;58876;51.994;4.472;2024-02-23T03:18:59;6.45;80.21
71175;DHT22;58876;51.994;4.472;2024-02-23T03:21:25;6.47;80.79
71175;DHT22;58876;51.994;4.472;2024-02-23T03:23:50;6.46;80.27
71175;DHT22;58876;51.994;4.472;2024-02-23T03:26:15;6.42;80.48
71175;DHT22;58876;51.994;4.472;2024-02-23T03:28:42;6.43;80.60
71175;DHT22;58876;51.994;4.472;2024-02-23T03:31:08;6.36;80.79
71175;DHT22;58876;51.994;4.472;2024-02-23T03:33:33;6.19;81.14
71175;DHT22;58876;51.994;4.472;2024-02-23T03:35:59;6.30;81.51
71175;DHT22;58876;51.994;4.472;2024-02-23T03:38:24;6.22;81.61
71175;DHT22;58876;51.994;4.472;2024-02-23T03:40:49;6.19;81.59
71175;DHT22;58876;51.994;4.472;2024-02-23T03:43:15;6.12;81.59
71175;DHT22;58876;51.994;4.472;2024-02-23T03:45:40;6.11;81.90
71175;DHT22;58876;51.994;4.472;2024-02-23T03:48:06;6.11;82.07
71175;DHT22;58876;51.994;4.472;2024-02-23T03:50:32;6.09;82.38
71175;DHT22;58876;51.994;4.472;2024-02-23T03:52:57;6.09;82.22
71175;DHT22;58876;51.994;4.472;2024-02-23T03:55:22;6.01;82.50
71175;DHT22;58876;51.994;4.472;2024-02-23T03:57:48;5.94;82.62
71175;DHT22;58876;51.994;4.472;2024-02-23T04:00:14;6.01;82.95
71175;DHT22;58876;51.994;4.472;2024-02-23T04:02:39;6.11;82.55
71175;DHT22;58876;51.994;4.472;2024-02-23T04:05:06;5.94;82.83
71175;DHT22;58876;51.994;4.472;2024-02-23T04:07:31;6.08;82.93
71175;DHT22;58876;51.994;4.472;2024-02-23T04:09:57;6.15;82.85
71175;DHT22;58876;51.994;4.472;2024-02-23T04:12:22;6.08;83.02
71175;DHT22;58876;51.994;4.472;2024-02-23T04:14:48;5.98;83.29
71175;DHT22;58876;51.994;4.472;2024-02-23T04:17:14;5.97;83.51
71175;DHT22;58876;51.994;4.472;2024-02-23T04:19:40;6.02;83.37
71175;DHT22;58876;51.994;4.472;2024-02-23T04:22:07;6.04;83.43
71175;DHT22;58876;51.994;4.472;2024-02-23T04:24:36;6.11;83.18
71175;DHT22;58876;51.994;4.472;2024-02-23T04:27:01;6.15;83.41
71175;DHT22;58876;51.994;4.472;2024-02-23T04:29:27;6.21;83.27
71175;DHT22;58876;51.994;4.472;2024-02-23T04:31:53;6.18;83.26
71175;DHT22;58876;51.994;4.472;2024-02-23T04:34:18;6.25;82.89
71175;DHT22;58876;51.994;4.472;2024-02-23T04:36:43;6.22;82.91
71175;DHT22;58876;51.994;4.472;2024-02-23T04:39:09;6.21;82.77
71175;DHT22;58876;51.994;4.472;2024-02-23T04:41:34;6.35;82.92
71175;DHT22;58876;51.994;4.472;2024-02-23T04:44:00;6.30;82.45
71175;DHT22;58876;51.994;4.472;2024-02-23T04:46:27;6.25;82.37
71175;DHT22;58876;51.994;4.472;2024-02-23T04:48:52;6.32;82.24
71175;DHT22;58876;51.994;4.472;2024-02-23T04:51:17;6.29;82.05
71175;DHT22;58876;51.994;4.472;2024-02-23T04:53:43;6.37;81.56
71175;DHT22;58876;51.994;4.472;2024-02-23T04:56:09;6.67;80.13
71175;DHT22;58876;51.994;4.472;2024-02-23T04:58:34;6.46;79.65
71175;DHT22;58876;51.994;4.472;2024-02-23T05:01:00;6.36;80.46
71175;DHT22;58876;51.994;4.472;2024-02-23T05:03:25;6.43;80.65
71175;DHT22;58876;51.994;4.472;2024-02-23T05:05:51;6.40;81.59
71175;DHT22;58876;51.994;4.472;2024-02-23T05:08:22;6.53;82.08
71175;DHT22;58876;51.994;4.472;2024-02-23T05:10:50;6.45;82.64
71175;DHT22;58876;51.994;4.472;2024-02-23T05:13:16;6.40;83.02
71175;DHT22;58876;51.994;4.472;2024-02-23T05:15:41;6.49;82.92
71175;DHT22;58876;51.994;4.472;2024-02-23T05:18:07;6.57;82.98
71175;DHT22;58876;51.994;4.472;2024-02-23T05:20:32;6.76;82.68
71175;DHT22;58876;51.994;4.472;2024-02-23T05:22:58;6.74;81.84
71175;DHT22;58876;51.994;4.472;2024-02-23T05:25:23;6.67;82.38
71175;DHT22;58876;51.994;4.472;2024-02-23T05:27:51;6.63;81.84
71175;DHT22;58876;51.994;4.472;2024-02-23T05:30:16;6.57;82.70
71175;DHT22;58876;51.994;4.472;2024-02-23T05:32:42;6.70;82.14
71175;DHT22;58876;51.994;4.472;2024-02-23T05:35:07;6.74;81.20
71175;DHT22;58876;51.994;4.472;2024-02-23T05:37:35;6.77;80.69
71175;DHT22;58876;51.994;4.472;2024-02-23T05:40:00;6.83;80.61
71175;DHT22;58876;51.994;4.472;2024-02-23T05:42:29;6.83;80.72
71175;DHT22;58876;51.994;4.472;2024-02-23T05:44:54;6.95;80.60
71175;DHT22;58876;51.994;4.472;2024-02-23T05:47:26;6.60;81.57
71175;DHT22;58876;51.994;4.472;2024-02-23T05:49:51;6.50;81.73
71175;DHT22;58876;51.994;4.472;2024-02-23T05:52:17;6.49;81.73
71175;DHT22;58876;51.994;4.472;2024-02-23T05:54:42;6.46;81.86
71175;DHT22;58876;51.994;4.472;2024-02-23T05:57:08;6.58;82.08
71175;DHT22;58876;51.994;4.472;2024-02-23T05:59:33;6.42;82.18
71175;DHT22;58876;51.994;4.472;2024-02-23T06:01:59;6.40;82.50
71175;DHT22;58876;51.994;4.472;2024-02-23T06:04:24;6.36;82.22
71175;DHT22;58876;51.994;4.472;2024-02-23T06:06:50;6.32;82.57
71175;DHT22;58876;51.994;4.472;2024-02-23T06:09:15;6.28;82.71
71175;DHT22;58876;51.994;4.472;2024-02-23T06:11:41;6.53;81.94
71175;DHT22;58876;51.994;4.472;2024-02-23T06:14:07;6.76;80.61
71175;DHT22;58876;51.994;4.472;2024-02-23T06:16:33;6.60;80.63
71175;DHT22;58876;51.994;4.472;2024-02-23T06:18:58;6.37;81.83
71175;DHT22;58876;51.994;4.472;2024-02-23T06:21:24;6.30;81.95
71175;DHT22;58876;51.994;4.472;2024-02-23T06:23:50;6.36;81.49
71175;DHT22;58876;51.994;4.472;2024-02-23T06:26:15;6.37;81.74
71175;DHT22;58876;51.994;4.472;2024-02-23T06:28:41;6.36;82.05
71175;DHT22;58876;51.994;4.472;2024-02-23T06:31:08;6.35;81.90
71175;DHT22;58876;51.994;4.472;2024-02-23T06:33:33;6.39;81.71
71175;DHT22;58876;51.994;4.472;2024-02-23T06:36:00;6.30;81.50
71175;DHT22;58876;51.994;4.472;2024-02-23T06:38:26;6.16;81.20
71175;DHT22;58876;51.994;4.472;2024-02-23T06:40:52;6.30;81.96
71175;DHT22;58876;51.994;4.472;2024-02-23T06:43:18;6.35;81.47
71175;DHT22;58876;51.994;4.472;2024-02-23T06:45:43;6.42;81.34
71175;DHT22;58876;51.994;4.472;2024-02-23T06:48:09;6.35;81.58
71175;DHT22;58876;51.994;4.472;2024-02-23T06:50:35;6.28;81.18
71175;DHT22;58876;51.994;4.472;2024-02-23T06:53:00;6.35;81.30
71175;DHT22;58876;51.994;4.472;2024-02-23T06:55:27;6.22;81.14
71175;DHT22;58876;51.994;4.472;2024-02-23T06:57:54;6.24;81.21
71175;DHT22;58876;51.994;4.472;2024-02-23T07:00:20;6.43;81.30
71175;DHT22;58876;51.994;4.472;2024-02-23T07:02:47;7.03;78.45
71175;DHT22;58876;51.994;4.472;2024-02-23T07:05:12;7.19;78.63
71175;DHT22;58876;51.994;4.472;2024-02-23T07:07:39;6.52;79.67
71175;DHT22;58876;51.994;4.472;2024-02-23T07:10:06;6.40;80.02
71175;DHT22;58876;51.994;4.472;2024-02-23T07:12:32;6.58;80.40
71175;DHT22;58876;51.994;4.472;2024-02-23T07:14:58;6.91;78.91
71175;DHT22;58876;51.994;4.472;2024-02-23T07:17:23;6.43;80.96
71175;DHT22;58876;51.994;4.472;2024-02-23T07:19:49;6.29;81.29
71175;DHT22;58876;51.994;4.472;2024-02-23T07:22:16;6.28;81.63
71175;DHT22;58876;51.994;4.472;2024-02-23T07:24:43;6.22;81.85
71175;DHT22;58876;51.994;4.472;2024-02-23T07:27:09;6.19;81.95
71175;DHT22;58876;51.994;4.472;2024-02-23T07:29:35;6.19;82.13
71175;DHT22;58876;51.994;4.472;2024-02-23T07:32:01;6.69;80.52
71175;DHT22;58876;51.994;4.472;2024-02-23T07:34:26;6.50;81.18
71175;DHT22;58876;51.994;4.472;2024-02-23T07:36:52;6.11;82.81
71175;DHT22;58876;51.994;4.472;2024-02-23T07:39:18;6.18;83.78
71175;DHT22;58876;51.994;4.472;2024-02-23T07:41:44;6.12;82.94
71175;DHT22;58876;51.994;4.472;2024-02-23T07:44:10;5.43;85.50
71175;DHT22;58876;51.994;4.472;2024-02-23T07:46:35;5.40;85.97
71175;DHT22;58876;51.994;4.472;2024-02-23T07:49:00;5.84;84.35
71175;DHT22;58876;51.994;4.472;2024-02-23T07:51:26;5.63;86.37
71175;DHT22;58876;51.994;4.472;2024-02-23T07:53:51;5.97;85.04
71175;DHT22;58876;51.994;4.472;2024-02-23T07:56:17;6.12;84.40
71175;DHT22;58876;51.994;4.472;2024-02-23T07:58:42;6.11;84.59
71175;DHT22;58876;51.994;4.472;2024-02-23T08:01:08;5.71;85.65
71175;DHT22;58876;51.994;4.472;2024-02-23T08:03:33;5.95;85.98
71175;DHT22;58876;51.994;4.472;2024-02-23T08:05:59;6.09;84.97
71175;DHT22;58876;51.994;4.472;2024-02-23T08:08:24;6.15;84.87
71175;DHT22;58876;51.994;4.472;2024-02-23T08:10:52;6.22;85.00
71175;DHT22;58876;51.994;4.472;2024-02-23T08:13:17;6.46;84.53
71175;DHT22;58876;51.994;4.472;2024-02-23T08:15:43;6.53;84.31
71175;DHT22;58876;51.994;4.472;2024-02-23T08:18:09;6.57;83.96
71175;DHT22;58876;51.994;4.472;2024-02-23T08:20:35;6.47;84.27
71175;DHT22;58876;51.994;4.472;2024-02-23T08:23:01;6.24;84.96
71175;DHT22;58876;51.994;4.472;2024-02-23T08:25:27;6.37;85.15
71175;DHT22;58876;51.994;4.472;2024-02-23T08:27:56;6.32;84.59
71175;DHT22;58876;51.994;4.472;2024-02-23T08:30:22;6.37;85.38
71175;DHT22;58876;51.994;4.472;2024-02-23T08:32:47;6.62;84.14
71175;DHT22;58876;51.994;4.472;2024-02-23T08:35:13;6.93;83.15
71175;DHT22;58876;51.994;4.472;2024-02-23T08:37:39;6.79;82.75
71175;DHT22;58876;51.994;4.472;2024-02-23T08:40:05;6.45;83.68
71175;DHT22;58876;51.994;4.472;2024-02-23T08:42:31;6.76;83.66
71175;DHT22;58876;51.994;4.472;2024-02-23T08:44:57;6.62;83.61
71175;DHT22;58876;51.994;4.472;2024-02-23T08:47:22;6.01;85.40
71175;DHT22;58876;51.994;4.472;2024-02-23T08:49:48;6.09;85.60
71175;DHT22;58876;51.994;4.472;2024-02-23T08:52:13;6.79;84.61
71175;DHT22;58876;51.994;4.472;2024-02-23T08:54:39;6.83;84.14
71175;DHT22;58876;51.994;4.472;2024-02-23T08:57:04;6.80;83.34
71175;DHT22;58876;51.994;4.472;2024-02-23T08:59:30;6.57;84.16
71175;DHT22;58876;51.994;4.472;2024-02-23T09:01:55;6.26;84.31
71175;DHT22;58876;51.994;4.472;2024-02-23T09:04:21;6.66;84.65
71175;DHT22;58876;51.994;4.472;2024-02-23T09:06:46;7.15;83.24
71175;DHT22;58876;51.994;4.472;2024-02-23T09:09:12;7.12;82.52
71175;DHT22;58876;51.994;4.472;2024-02-23T09:11:37;6.84;83.35
71175;DHT22;58876;51.994;4.472;2024-02-23T09:14:03;7.16;82.52
71175;DHT22;58876;51.994;4.472;2024-02-23T09:16:29;7.32;82.52
71175;DHT22;58876;51.994;4.472;2024-02-23T09:18:54;7.45;82.27
71175;DHT22;58876;51.994;4.472;2024-02-23T09:21:20;7.32;81.78
71175;DHT22;58876;51.994;4.472;2024-02-23T09:23:45;7.42;81.51
71175;DHT22;58876;51.994;4.472;2024-02-23T09:26:11;7.51;81.37
71175;DHT22;58876;51.994;4.472;2024-02-23T09:28:39;7.87;80.99
71175;DHT22;58876;51.994;4.472;2024-02-23T09:31:10;7.87;81.13
71175;DHT22;58876;51.994;4.472;2024-02-23T09:33:39;7.77;80.35
71175;DHT22;58876;51.994;4.472;2024-02-23T09:36:05;7.86;80.80
71175;DHT22;58876;51.994;4.472;2024-02-23T09:38:30;7.66;80.34
71175;DHT22;58876;51.994;4.472;2024-02-23T09:40:58;7.44;81.24
71175;DHT22;58876;51.994;4.472;2024-02-23T09:43:29;7.59;81.56
71175;DHT22;58876;51.994;4.472;2024-02-23T09:45:56;7.79;81.61
71175;DHT22;58876;51.994;4.472;2024-02-23T09:48:23;7.82;80.54
71175;DHT22;58876;51.994;4.472;2024-02-23T09:50:50;7.87;80.47
71175;DHT22;58876;51.994;4.472;2024-02-23T09:53:17;8.14;79.97
71175;DHT22;58876;51.994;4.472;2024-02-23T09:55:44;8.30;79.31
71175;DHT22;58876;51.994;4.472;2024-02-23T09:58:12;8.21;78.67
71175;DHT22;58876;51.994;4.472;2024-02-23T10:00:39;8.33;78.57
71175;DHT22;58876;51.994;4.472;2024-02-23T10:03:05;8.23;78.63
71175;DHT22;58876;51.994;4.472;2024-02-23T10:05:31;8.52;78.27
71175;DHT22;58876;51.994;4.472;2024-02-23T10:07:57;8.59;78.00
71175;DHT22;58876;51.994;4.472;2024-02-23T10:10:33;8.71;77.83
71175;DHT22;58876;51.994;4.472;2024-02-23T10:13:00;8.93;76.61
71175;DHT22;58876;51.994;4.472;2024-02-23T10:15:25;8.75;76.38
71175;DHT22;58876;51.994;4.472;2024-02-23T10:17:51;8.69;76.58
71175;DHT22;58876;51.994;4.472;2024-02-23T10:20:19;8.83;76.02
71175;DHT22;58876;51.994;4.472;2024-02-23T10:22:45;8.96;76.01
71175;DHT22;58876;51.994;4.472;2024-02-23T10:25:10;9.24;75.49
71175;DHT22;58876;51.994;4.472;2024-02-23T10:27:35;9.38;74.85
71175;DHT22;58876;51.994;4.472;2024-02-23T10:30:04;9.85;74.44
71175;DHT22;58876;51.994;4.472;2024-02-23T10:32:30;9.74;73.95
71175;DHT22;58876;51.994;4.472;2024-02-23T10:35:00;9.40;74.02
71175;DHT22;58876;51.994;4.472;2024-02-23T10:37:26;9.71;74.27
71175;DHT22;58876;51.994;4.472;2024-02-23T10:39:57;9.28;74.03
71175;DHT22;58876;51.994;4.472;2024-02-23T10:42:25;9.14;74.84
71175;DHT22;58876;51.994;4.472;2024-02-23T10:44:58;9.03;74.91
71175;DHT22;58876;51.994;4.472;2024-02-23T10:47:26;9.10;75.11
71175;DHT22;58876;51.994;4.472;2024-02-23T10:49:53;8.99;74.60
71175;DHT22;58876;51.994;4.472;2024-02-23T10:52:22;9.06;75.12
71175;DHT22;58876;51.994;4.472;2024-02-23T10:54:50;9.04;74.61
71175;DHT22;58876;51.994;4.472;2024-02-23T10:57:17;9.27;74.20
71175;DHT22;58876;51.994;4.472;2024-02-23T10:59:47;9.20;74.25
71175;DHT22;58876;51.994;4.472;2024-02-23T11:02:14;9.37;73.95
71175;DHT22;58876;51.994;4.472;2024-02-23T11:04:47;9.26;74.69
71175;DHT22;58876;51.994;4.472;2024-02-23T11:07:17;9.35;74.09
71175;DHT22;58876;51.994;4.472;2024-02-23T11:09:49;9.40;74.44
71175;DHT22;58876;51.994;4.472;2024-02-23T11:12:23;9.19;74.91
71175;DHT22;58876;51.994;4.472;2024-02-23T11:14:50;9.12;74.74
71175;DHT22;58876;51.994;4.472;2024-02-23T11:17:19;8.87;75.33
71175;DHT22;58876;51.994;4.472;2024-02-23T11:19:50;8.89;74.91
71175;DHT22;58876;51.994;4.472;2024-02-23T11:22:24;8.83;74.72
71175;DHT22;58876;51.994;4.472;2024-02-23T11:24:51;9.30;74.55
71175;DHT22;58876;51.994;4.472;2024-02-23T11:27:16;9.28;74.03
71175;DHT22;58876;51.994;4.472;2024-02-23T11:29:48;9.58;73.94
71175;DHT22;58876;51.994;4.472;2024-02-23T11:32:38;9.71;73.08
71175;DHT22;58876;51.994;4.472;2024-02-23T11:35:06;9.47;72.97
71175;DHT22;58876;51.994;4.472;2024-02-23T11:37:32;9.31;73.39
71175;DHT22;58876;51.994;4.472;2024-02-23T11:40:00;9.31;73.09
71175;DHT22;58876;51.994;4.472;2024-02-23T11:42:27;9.35;73.76
71175;DHT22;58876;51.994;4.472;2024-02-23T11:44:52;9.44;72.97
71175;DHT22;58876;51.994;4.472;2024-02-23T11:47:19;9.41;72.84
71175;DHT22;58876;51.994;4.472;2024-02-23T11:49:44;9.57;72.39
71175;DHT22;58876;51.994;4.472;2024-02-23T11:52:10;9.61;72.45
71175;DHT22;58876;51.994;4.472;2024-02-23T11:54:37;9.50;73.25
71175;DHT22;58876;51.994;4.472;2024-02-23T11:57:03;9.83;72.90
71175;DHT22;58876;51.994;4.472;2024-02-23T11:59:28;10.06;72.32
71175;DHT22;58876;51.994;4.472;2024-02-23T12:01:54;10.05;71.96
71175;DHT22;58876;51.994;4.472;2024-02-23T12:04:19;9.75;71.88
71175;DHT22;58876;51.994;4.472;2024-02-23T12:06:45;9.72;71.51
71175;DHT22;58876;51.994;4.472;2024-02-23T12:09:12;9.93;71.54
71175;DHT22;58876;51.994;4.472;2024-02-23T12:11:38;10.09;71.06
71175;DHT22;58876;51.994;4.472;2024-02-23T12:14:05;9.99;71.28
71175;DHT22;58876;51.994;4.472;2024-02-23T12:16:35;10.10;70.99
71175;DHT22;58876;51.994;4.472;2024-02-23T12:19:02;10.40;70.06
71175;DHT22;58876;51.994;4.472;2024-02-23T12:21:28;10.43;68.70
71175;DHT22;58876;51.994;4.472;2024-02-23T12:23:53;10.30;69.86
71175;DHT22;58876;51.994;4.472;2024-02-23T12:26:19;10.82;69.01
71175;DHT22;58876;51.994;4.472;2024-02-23T12:28:45;10.65;68.55
71175;DHT22;58876;51.994;4.472;2024-02-23T12:31:11;10.59;68.38
71175;DHT22;58876;51.994;4.472;2024-02-23T12:33:38;10.56;67.77
71175;DHT22;58876;51.994;4.472;2024-02-23T12:36:08;10.63;68.19
71175;DHT22;58876;51.994;4.472;2024-02-23T12:38:35;11.08;67.68
71175;DHT22;58876;51.994;4.472;2024-02-23T12:41:01;11.19;67.21
71175;DHT22;58876;51.994;4.472;2024-02-23T12:43:27;11.33;67.06
71175;DHT22;58876;51.994;4.472;2024-02-23T12:45:53;11.44;66.81
71175;DHT22;58876;51.994;4.472;2024-02-23T12:48:20;9.74;71.82
71175;DHT22;58876;51.994;4.472;2024-02-23T12:50:46;9.45;72.90
71175;DHT22;58876;51.994;4.472;2024-02-23T12:56:12;9.44;73.43
71175;DHT22;58876;51.994;4.472;2024-02-23T12:58:40;9.45;72.62
71175;DHT22;58876;51.994;4.472;2024-02-23T13:01:07;9.41;72.20
71175;DHT22;58876;51.994;4.472;2024-02-23T13:03:34;9.48;72.19
71175;DHT22;58876;51.994;4.472;2024-02-23T13:06:00;9.20;73.06
71175;DHT22;58876;51.994;4.472;2024-02-23T13:08:26;9.16;73.07
71175;DHT22;58876;51.994;4.472;2024-02-23T13:10:53;9.03;72.20
71175;DHT22;58876;51.994;4.472;2024-02-23T13:13:19;9.22;71.81
71175;DHT22;58876;51.994;4.472;2024-02-23T13:15:46;9.33;72.19
71175;DHT22;58876;51.994;4.472;2024-02-23T13:18:12;9.13;70.91
71175;DHT22;58876;51.994;4.472;2024-02-23T13:20:37;9.07;70.97
71175;DHT22;58876;51.994;4.472;2024-02-23T13:23:04;9.17;71.34
71175;DHT22;58876;51.994;4.472;2024-02-23T13:25:29;9.09;71.70
71175;DHT22;58876;51.994;4.472;2024-02-23T13:27:55;9.03;71.36
71175;DHT22;58876;51.994;4.472;2024-02-23T13:30:20;9.17;71.11
71175;DHT22;58876;51.994;4.472;2024-02-23T13:32:46;9.13;71.28
71175;DHT22;58876;51.994;4.472;2024-02-23T13:35:11;9.10;72.03
71175;DHT22;58876;51.994;4.472;2024-02-23T13:37:39;9.10;71.20
71175;DHT22;58876;51.994;4.472;2024-02-23T13:40:05;9.16;71.84
71175;DHT22;58876;51.994;4.472;2024-02-23T13:42:31;9.22;71.60
71175;DHT22;58876;51.994;4.472;2024-02-23T13:44:56;9.13;71.88
71175;DHT22;58876;51.994;4.472;2024-02-23T13:47:22;9.19;71.86
71175;DHT22;58876;51.994;4.472;2024-02-23T13:49:47;9.16;71.79
71175;DHT22;58876;51.994;4.472;2024-02-23T13:52:12;9.27;71.53
71175;DHT22;58876;51.994;4.472;2024-02-23T13:54:38;9.17;71.36
71175;DHT22;58876;51.994;4.472;2024-02-23T13:57:03;9.13;72.20
71175;DHT22;58876;51.994;4.472;2024-02-23T13:59:29;9.17;71.92
71175;DHT22;58876;51.994;4.472;2024-02-23T14:01:54;9.13;71.88
71175;DHT22;58876;51.994;4.472;2024-02-23T14:04:20;8.94;71.95
71175;DHT22;58876;51.994;4.472;2024-02-23T14:06:45;9.10;72.03
71175;DHT22;58876;51.994;4.472;2024-02-23T14:09:11;9.13;70.99
71175;DHT22;58876;51.994;4.472;2024-02-23T14:11:39;8.73;71.12
71175;DHT22;58876;51.994;4.472;2024-02-23T14:14:05;8.73;71.79
71175;DHT22;58876;51.994;4.472;2024-02-23T14:16:31;8.76;71.80
71175;DHT22;58876;51.994;4.472;2024-02-23T14:18:57;8.76;71.30
71175;DHT22;58876;51.994;4.472;2024-02-23T14:21:22;8.75;71.67
71175;DHT22;58876;51.994;4.472;2024-02-23T14:23:50;8.83;71.36
71175;DHT22;58876;51.994;4.472;2024-02-23T14:26:15;8.90;70.93
71175;DHT22;58876;51.994;4.472;2024-02-23T14:28:43;8.80;70.64
71175;DHT22;58876;51.994;4.472;2024-02-23T14:31:09;8.87;71.70
71175;DHT22;58876;51.994;4.472;2024-02-23T14:33:34;8.99;70.88
71175;DHT22;58876;51.994;4.472;2024-02-23T14:36:00;8.87;71.85
71175;DHT22;58876;51.994;4.472;2024-02-23T14:38:25;8.90;71.95
71175;DHT22;58876;51.994;4.472;2024-02-23T14:40:51;8.79;71.06
71175;DHT22;58876;51.994;4.472;2024-02-23T14:43:16;8.75;70.95
71175;DHT22;58876;51.994;4.472;2024-02-23T14:45:42;8.83;71.70
71175;DHT22;58876;51.994;4.472;2024-02-23T14:48:07;9.06;72.04
71175;DHT22;58876;51.994;4.472;2024-02-23T14:50:33;9.00;71.77
71175;DHT22;58876;51.994;4.472;2024-02-23T14:52:59;8.89;72.38
71175;DHT22;58876;51.994;4.472;2024-02-23T14:55:25;9.14;72.23
71175;DHT22;58876;51.994;4.472;2024-02-23T14:57:51;9.43;71.70
71175;DHT22;58876;51.994;4.472;2024-02-23T15:00:16;9.37;71.38
71175;DHT22;58876;51.994;4.472;2024-02-23T15:02:42;9.50;71.58
71175;DHT22;58876;51.994;4.472;2024-02-23T15:05:07;9.44;71.34
71175;DHT22;58876;51.994;4.472;2024-02-23T15:07:33;9.26;71.20
71175;DHT22;58876;51.994;4.472;2024-02-23T15:10:01;9.31;72.15
71175;DHT22;58876;51.994;4.472;2024-02-23T15:12:31;9.23;71.74
71175;DHT22;58876;51.994;4.472;2024-02-23T15:14:57;9.23;71.83
71175;DHT22;58876;51.994;4.472;2024-02-23T15:17:22;9.31;71.93
71175;DHT22;58876;51.994;4.472;2024-02-23T15:19:48;9.28;72.55
71175;DHT22;58876;51.994;4.472;2024-02-23T15:22:14;9.45;71.92
71175;DHT22;58876;51.994;4.472;2024-02-23T15:24:41;9.55;71.27
71175;DHT22;58876;51.994;4.472;2024-02-23T15:27:08;9.31;71.55
71175;DHT22;58876;51.994;4.472;2024-02-23T15:29:34;9.37;70.91
71175;DHT22;58876;51.994;4.472;2024-02-23T15:32:00;9.44;71.19
71175;DHT22;58876;51.994;4.472;2024-02-23T15:34:26;9.31;70.76
71175;DHT22;58876;51.994;4.472;2024-02-23T15:36:51;9.19;70.98
71175;DHT22;58876;51.994;4.472;2024-02-23T15:39:17;9.35;71.08
71175;DHT22;58876;51.994;4.472;2024-02-23T15:41:42;9.31;71.21